Terminal Aerodrome Forecast
Issued by NWS Twin Cities, MN

Home | Current Version | Previous Version | Graphics & Text | Print | Product List | Glossary On
Versions: 1 2 3 4 5 6 7 8 9 10 11 12 13 14 15 16 17 18 19
301
FTUS43 KMPX 201737
TAFSTC
TAF
KSTC 201737Z 2018/2118 13006KT 1SM BR OVC002
     FM210000 12004KT 3SM BR OVC003
     FM210600 13004KT 1SM -DZ BR OVC002
     FM211200 10007KT 3SM -RA BR OVC004=

USA.gov is the U.S. government's official web portal to all federal, state and local government web resources and services.